Pagrindinis puslapis
METAR-TAF:

METAR-TAF

Oro uostai :

Andøya, Norvegija

platuma: 69-18N, ilguma: 016-09E, Aukštis: 1 m

Dabartinis oras

Ataskaita buvo paskelbta 44 minutes, ne 16:20 UTC
Vėjas 17 kt iš Šiaurės/Šiaurės Rytų
Temperatūra 2°C
Drėgmė 75%
Slėgis 978 hPa
Matomumas 10 km arba daugiau

METAR: ENAN 071620Z AUTO 03017KT 9999 OVC024/// 02/M02 Q0978

Laikas: 18:04 (17:04 UTC)

Prognozė

Prognozė galioja nuo 07 metu 12 UTC su 08 metu 12 UTC
Vėjas 5 kt iš Pietų
Matomumas 10 km arba daugiau
Mažai debesys ne aukštis 1500 ft
Su prošvaistėmis ne aukštis 3000 ft
Tapsmas
nuo 07 metu 12 UTC su 07 metu 14 UTC
Vėjas 20 kt iš Šiaurės Rytų
Laikinai
nuo 08 metu 00 UTC su 08 metu 11 UTC
Matomumas: 4000 m
Su prošvaistėmis ne aukštis 1500 ft, Liūtiniai kamuoliniai debesys.
sniegas, lietus
Laikinai
nuo 08 metu 00 UTC su 08 metu 04 UTC
Vėjas 20 kt iš Šiaurės su gūsio iki 30 kt

TAF: ENAN 0712/0812 18005KT 9999 FEW015 BKN030 BECMG 0712/0714 04020KT TEMPO 0800/0811 4000 -SHSNRA BKN015CB TEMPO 0800/0804 36020G30KT

Orai ataskaitas ir orų prognozės (METAR, TAF).

turimą stotys yra geltonos ir raudonos taškus žemėlapyje.

Perkelti pele per norėdami pamatyti stoties vardą.

Tada spustelėkite, norėdami matyti oro stebėjimo ir prognozės.

Norėdami pakeisti žemėlapį: spustelėkite ant žalios mygtukų su juodo kryžiaus žemyn,; žalią mygtuką su brūkšneliu, jei norite nutolinti; arba žalių rodyklių gretimoms žemėlapius.


METAR-TAF: